sensor_id;sensor_type;location;lat;lon;timestamp;P1;durP1;ratioP1;P2;durP2;ratioP2
29848;SDS011;16728;50.832;5.590;2023-07-31T00:01:31;11.70;;;3.88;;
29848;SDS011;16728;50.832;5.590;2023-07-31T00:04:33;12.55;;;4.05;;
29848;SDS011;16728;50.832;5.590;2023-07-31T00:07:35;10.07;;;4.13;;
29848;SDS011;16728;50.832;5.590;2023-07-31T00:10:37;8.13;;;4.15;;
29848;SDS011;16728;50.832;5.590;2023-07-31T00:13:39;8.75;;;3.60;;
29848;SDS011;16728;50.832;5.590;2023-07-31T00:16:40;11.18;;;4.00;;
29848;SDS011;16728;50.832;5.590;2023-07-31T00:19:43;10.63;;;3.83;;
29848;SDS011;16728;50.832;5.590;2023-07-31T00:22:47;7.78;;;4.15;;
29848;SDS011;16728;50.832;5.590;2023-07-31T00:25:49;8.05;;;3.00;;
29848;SDS011;16728;50.832;5.590;2023-07-31T00:28:52;9.02;;;3.90;;
29848;SDS011;16728;50.832;5.590;2023-07-31T00:31:54;10.40;;;4.20;;
29848;SDS011;16728;50.832;5.590;2023-07-31T00:34:56;10.93;;;3.92;;
29848;SDS011;16728;50.832;5.590;2023-07-31T00:37:58;9.63;;;3.63;;
29848;SDS011;16728;50.832;5.590;2023-07-31T00:41:00;7.40;;;3.25;;
29848;SDS011;16728;50.832;5.590;2023-07-31T00:44:02;8.77;;;3.53;;
29848;SDS011;16728;50.832;5.590;2023-07-31T00:47:04;9.40;;;3.42;;
29848;SDS011;16728;50.832;5.590;2023-07-31T00:50:07;7.60;;;3.57;;
29848;SDS011;16728;50.832;5.590;2023-07-31T00:53:09;9.80;;;4.30;;
29848;SDS011;16728;50.832;5.590;2023-07-31T00:56:11;8.45;;;4.03;;
29848;SDS011;16728;50.832;5.590;2023-07-31T00:59:14;8.43;;;3.75;;
29848;SDS011;16728;50.832;5.590;2023-07-31T01:02:16;8.95;;;3.65;;
29848;SDS011;16728;50.832;5.590;2023-07-31T01:05:19;9.37;;;4.83;;
29848;SDS011;16728;50.832;5.590;2023-07-31T01:08:41;8.90;;;4.28;;
29848;SDS011;16728;50.832;5.590;2023-07-31T01:12:03;7.07;;;3.90;;
29848;SDS011;16728;50.832;5.590;2023-07-31T01:15:08;11.50;;;4.35;;
29848;SDS011;16728;50.832;5.590;2023-07-31T01:18:15;9.13;;;4.28;;
29848;SDS011;16728;50.832;5.590;2023-07-31T01:32:01;14.18;;;4.20;;
29848;SDS011;16728;50.832;5.590;2023-07-31T01:35:05;8.65;;;3.50;;
29848;SDS011;16728;50.832;5.590;2023-07-31T01:38:07;12.38;;;4.90;;
29848;SDS011;16728;50.832;5.590;2023-07-31T01:41:09;9.80;;;4.22;;
29848;SDS011;16728;50.832;5.590;2023-07-31T01:44:11;8.48;;;3.80;;
29848;SDS011;16728;50.832;5.590;2023-07-31T01:47:13;9.25;;;4.22;;
29848;SDS011;16728;50.832;5.590;2023-07-31T01:50:15;10.45;;;4.40;;
29848;SDS011;16728;50.832;5.590;2023-07-31T01:53:17;8.95;;;4.60;;
29848;SDS011;16728;50.832;5.590;2023-07-31T01:56:19;13.45;;;4.40;;
29848;SDS011;16728;50.832;5.590;2023-07-31T01:59:21;10.98;;;4.25;;
29848;SDS011;16728;50.832;5.590;2023-07-31T02:02:23;13.88;;;5.00;;
29848;SDS011;16728;50.832;5.590;2023-07-31T02:05:25;13.43;;;4.45;;
29848;SDS011;16728;50.832;5.590;2023-07-31T02:08:26;14.45;;;4.60;;
29848;SDS011;16728;50.832;5.590;2023-07-31T02:11:28;12.05;;;4.45;;
29848;SDS011;16728;50.832;5.590;2023-07-31T02:14:30;9.52;;;3.95;;
29848;SDS011;16728;50.832;5.590;2023-07-31T02:17:32;10.85;;;3.83;;
29848;SDS011;16728;50.832;5.590;2023-07-31T02:20:34;10.50;;;4.45;;
29848;SDS011;16728;50.832;5.590;2023-07-31T02:23:36;9.52;;;4.20;;
29848;SDS011;16728;50.832;5.590;2023-07-31T02:26:38;11.05;;;4.28;;
29848;SDS011;16728;50.832;5.590;2023-07-31T02:29:40;10.82;;;4.13;;
29848;SDS011;16728;50.832;5.590;2023-07-31T02:32:42;10.60;;;4.43;;
29848;SDS011;16728;50.832;5.590;2023-07-31T02:35:44;9.23;;;4.55;;
29848;SDS011;16728;50.832;5.590;2023-07-31T02:38:46;10.02;;;4.60;;
29848;SDS011;16728;50.832;5.590;2023-07-31T02:41:48;10.15;;;4.35;;
29848;SDS011;16728;50.832;5.590;2023-07-31T02:44:50;10.63;;;4.70;;
29848;SDS011;16728;50.832;5.590;2023-07-31T02:47:57;8.23;;;4.70;;
29848;SDS011;16728;50.832;5.590;2023-07-31T02:50:59;9.48;;;4.70;;
29848;SDS011;16728;50.832;5.590;2023-07-31T02:54:01;10.38;;;4.68;;
29848;SDS011;16728;50.832;5.590;2023-07-31T02:57:03;9.32;;;4.55;;
29848;SDS011;16728;50.832;5.590;2023-07-31T03:00:05;10.30;;;4.90;;
29848;SDS011;16728;50.832;5.590;2023-07-31T03:03:08;10.55;;;5.30;;
29848;SDS011;16728;50.832;5.590;2023-07-31T03:06:10;7.65;;;4.47;;
29848;SDS011;16728;50.832;5.590;2023-07-31T03:09:12;9.57;;;4.45;;
29848;SDS011;16728;50.832;5.590;2023-07-31T03:12:14;8.05;;;4.68;;
29848;SDS011;16728;50.832;5.590;2023-07-31T03:15:16;8.30;;;5.05;;
29848;SDS011;16728;50.832;5.590;2023-07-31T03:18:18;10.48;;;5.05;;
29848;SDS011;16728;50.832;5.590;2023-07-31T03:21:20;8.75;;;4.45;;
29848;SDS011;16728;50.832;5.590;2023-07-31T03:24:22;8.80;;;4.85;;
29848;SDS011;16728;50.832;5.590;2023-07-31T03:27:24;8.07;;;4.25;;
29848;SDS011;16728;50.832;5.590;2023-07-31T03:30:26;5.90;;;4.03;;
29848;SDS011;16728;50.832;5.590;2023-07-31T03:33:28;9.63;;;5.28;;
29848;SDS011;16728;50.832;5.590;2023-07-31T03:36:30;9.20;;;4.75;;
29848;SDS011;16728;50.832;5.590;2023-07-31T03:39:33;6.80;;;4.22;;
29848;SDS011;16728;50.832;5.590;2023-07-31T03:42:34;8.48;;;4.40;;
29848;SDS011;16728;50.832;5.590;2023-07-31T03:45:37;8.45;;;4.13;;
29848;SDS011;16728;50.832;5.590;2023-07-31T03:48:38;7.70;;;4.15;;
29848;SDS011;16728;50.832;5.590;2023-07-31T03:51:40;8.25;;;4.45;;
29848;SDS011;16728;50.832;5.590;2023-07-31T03:54:43;10.20;;;4.35;;
29848;SDS011;16728;50.832;5.590;2023-07-31T03:57:46;8.27;;;4.07;;
29848;SDS011;16728;50.832;5.590;2023-07-31T04:00:48;8.60;;;4.20;;
29848;SDS011;16728;50.832;5.590;2023-07-31T04:03:50;9.70;;;4.63;;
29848;SDS011;16728;50.832;5.590;2023-07-31T04:06:52;7.80;;;4.43;;
29848;SDS011;16728;50.832;5.590;2023-07-31T04:09:54;10.73;;;3.88;;
29848;SDS011;16728;50.832;5.590;2023-07-31T04:12:56;8.38;;;4.00;;
29848;SDS011;16728;50.832;5.590;2023-07-31T04:15:57;5.80;;;3.70;;
29848;SDS011;16728;50.832;5.590;2023-07-31T04:18:59;7.63;;;4.05;;
29848;SDS011;16728;50.832;5.590;2023-07-31T04:22:01;7.35;;;3.78;;
29848;SDS011;16728;50.832;5.590;2023-07-31T04:25:03;9.50;;;4.28;;
29848;SDS011;16728;50.832;5.590;2023-07-31T04:28:06;9.10;;;3.95;;
29848;SDS011;16728;50.832;5.590;2023-07-31T04:31:08;8.87;;;4.10;;
29848;SDS011;16728;50.832;5.590;2023-07-31T04:34:10;5.20;;;3.42;;
29848;SDS011;16728;50.832;5.590;2023-07-31T04:37:15;6.97;;;3.95;;
29848;SDS011;16728;50.832;5.590;2023-07-31T04:40:17;9.38;;;4.03;;
29848;SDS011;16728;50.832;5.590;2023-07-31T04:43:19;7.05;;;3.70;;
29848;SDS011;16728;50.832;5.590;2023-07-31T04:46:21;9.95;;;3.90;;
29848;SDS011;16728;50.832;5.590;2023-07-31T04:49:23;8.18;;;3.80;;
29848;SDS011;16728;50.832;5.590;2023-07-31T04:52:25;6.05;;;3.25;;
29848;SDS011;16728;50.832;5.590;2023-07-31T04:55:27;5.68;;;3.50;;
29848;SDS011;16728;50.832;5.590;2023-07-31T04:58:29;9.27;;;3.22;;
29848;SDS011;16728;50.832;5.590;2023-07-31T05:01:31;6.57;;;3.92;;
29848;SDS011;16728;50.832;5.590;2023-07-31T05:04:33;7.78;;;3.53;;
29848;SDS011;16728;50.832;5.590;2023-07-31T05:07:35;6.22;;;3.25;;
29848;SDS011;16728;50.832;5.590;2023-07-31T05:10:37;8.82;;;4.03;;
29848;SDS011;16728;50.832;5.590;2023-07-31T05:13:39;7.43;;;3.65;;
29848;SDS011;16728;50.832;5.590;2023-07-31T05:16:41;7.70;;;3.55;;
29848;SDS011;16728;50.832;5.590;2023-07-31T05:19:44;7.70;;;4.63;;
29848;SDS011;16728;50.832;5.590;2023-07-31T05:22:46;8.85;;;3.72;;
29848;SDS011;16728;50.832;5.590;2023-07-31T05:25:47;9.02;;;4.20;;
29848;SDS011;16728;50.832;5.590;2023-07-31T05:28:50;6.63;;;3.13;;
29848;SDS011;16728;50.832;5.590;2023-07-31T05:31:52;6.50;;;3.67;;
29848;SDS011;16728;50.832;5.590;2023-07-31T05:34:54;8.55;;;3.58;;
29848;SDS011;16728;50.832;5.590;2023-07-31T05:37:56;7.55;;;3.20;;
29848;SDS011;16728;50.832;5.590;2023-07-31T05:40:58;6.45;;;3.90;;
29848;SDS011;16728;50.832;5.590;2023-07-31T05:44:00;10.85;;;3.67;;
29848;SDS011;16728;50.832;5.590;2023-07-31T05:47:02;7.63;;;3.22;;
29848;SDS011;16728;50.832;5.590;2023-07-31T05:50:04;5.82;;;3.47;;
29848;SDS011;16728;50.832;5.590;2023-07-31T05:53:06;6.68;;;3.15;;
29848;SDS011;16728;50.832;5.590;2023-07-31T05:56:09;7.03;;;3.67;;
29848;SDS011;16728;50.832;5.590;2023-07-31T05:59:11;6.47;;;3.10;;
29848;SDS011;16728;50.832;5.590;2023-07-31T06:02:14;5.57;;;3.50;;
29848;SDS011;16728;50.832;5.590;2023-07-31T06:05:16;7.82;;;3.90;;
29848;SDS011;16728;50.832;5.590;2023-07-31T06:08:18;5.38;;;3.42;;
29848;SDS011;16728;50.832;5.590;2023-07-31T06:11:20;8.90;;;3.30;;
29848;SDS011;16728;50.832;5.590;2023-07-31T06:14:22;7.32;;;3.42;;
29848;SDS011;16728;50.832;5.590;2023-07-31T06:17:24;6.07;;;3.58;;
29848;SDS011;16728;50.832;5.590;2023-07-31T06:20:27;7.28;;;3.78;;
29848;SDS011;16728;50.832;5.590;2023-07-31T06:23:48;7.53;;;3.30;;
29848;SDS011;16728;50.832;5.590;2023-07-31T06:26:50;7.28;;;3.50;;
29848;SDS011;16728;50.832;5.590;2023-07-31T06:29:52;7.07;;;3.20;;
29848;SDS011;16728;50.832;5.590;2023-07-31T06:32:54;6.68;;;3.22;;
29848;SDS011;16728;50.832;5.590;2023-07-31T06:35:56;6.78;;;2.95;;
29848;SDS011;16728;50.832;5.590;2023-07-31T06:38:58;7.03;;;3.90;;
29848;SDS011;16728;50.832;5.590;2023-07-31T06:42:00;6.45;;;3.10;;
29848;SDS011;16728;50.832;5.590;2023-07-31T06:45:02;4.90;;;3.17;;
29848;SDS011;16728;50.832;5.590;2023-07-31T06:48:04;7.65;;;3.42;;
29848;SDS011;16728;50.832;5.590;2023-07-31T06:51:06;7.32;;;3.58;;
29848;SDS011;16728;50.832;5.590;2023-07-31T06:54:08;10.13;;;3.92;;
29848;SDS011;16728;50.832;5.590;2023-07-31T06:57:10;6.93;;;3.95;;
29848;SDS011;16728;50.832;5.590;2023-07-31T07:00:12;5.57;;;3.55;;
29848;SDS011;16728;50.832;5.590;2023-07-31T07:03:14;7.05;;;3.38;;
29848;SDS011;16728;50.832;5.590;2023-07-31T07:06:17;9.05;;;3.60;;
29848;SDS011;16728;50.832;5.590;2023-07-31T07:09:19;6.18;;;3.83;;
29848;SDS011;16728;50.832;5.590;2023-07-31T07:12:21;8.57;;;3.83;;
29848;SDS011;16728;50.832;5.590;2023-07-31T07:15:23;10.23;;;3.55;;
29848;SDS011;16728;50.832;5.590;2023-07-31T07:18:25;7.68;;;3.42;;
29848;SDS011;16728;50.832;5.590;2023-07-31T07:21:27;9.70;;;3.72;;
29848;SDS011;16728;50.832;5.590;2023-07-31T07:24:29;6.13;;;3.40;;
29848;SDS011;16728;50.832;5.590;2023-07-31T07:27:31;6.22;;;3.22;;
29848;SDS011;16728;50.832;5.590;2023-07-31T07:30:33;6.15;;;3.90;;
29848;SDS011;16728;50.832;5.590;2023-07-31T07:33:36;7.32;;;4.25;;
29848;SDS011;16728;50.832;5.590;2023-07-31T07:36:38;7.72;;;3.70;;
29848;SDS011;16728;50.832;5.590;2023-07-31T07:39:40;6.65;;;3.40;;
29848;SDS011;16728;50.832;5.590;2023-07-31T07:42:42;10.55;;;3.90;;
29848;SDS011;16728;50.832;5.590;2023-07-31T07:45:44;7.05;;;3.47;;
29848;SDS011;16728;50.832;5.590;2023-07-31T07:48:46;7.05;;;3.80;;
29848;SDS011;16728;50.832;5.590;2023-07-31T07:51:48;6.25;;;3.95;;
29848;SDS011;16728;50.832;5.590;2023-07-31T07:54:50;6.67;;;3.50;;
29848;SDS011;16728;50.832;5.590;2023-07-31T07:57:52;5.00;;;3.47;;
29848;SDS011;16728;50.832;5.590;2023-07-31T08:00:54;8.43;;;3.80;;
29848;SDS011;16728;50.832;5.590;2023-07-31T08:03:57;6.68;;;3.80;;
29848;SDS011;16728;50.832;5.590;2023-07-31T08:06:59;6.13;;;3.45;;
29848;SDS011;16728;50.832;5.590;2023-07-31T08:10:01;7.50;;;3.70;;
29848;SDS011;16728;50.832;5.590;2023-07-31T08:13:03;8.88;;;4.07;;
29848;SDS011;16728;50.832;5.590;2023-07-31T08:16:05;8.73;;;3.95;;
29848;SDS011;16728;50.832;5.590;2023-07-31T08:19:07;7.85;;;3.35;;
29848;SDS011;16728;50.832;5.590;2023-07-31T08:22:10;9.80;;;3.60;;
29848;SDS011;16728;50.832;5.590;2023-07-31T08:25:12;5.78;;;3.28;;
29848;SDS011;16728;50.832;5.590;2023-07-31T08:28:14;5.95;;;3.13;;
29848;SDS011;16728;50.832;5.590;2023-07-31T08:31:16;5.85;;;3.55;;
29848;SDS011;16728;50.832;5.590;2023-07-31T08:34:19;5.97;;;3.10;;
29848;SDS011;16728;50.832;5.590;2023-07-31T08:37:21;8.02;;;3.45;;
29848;SDS011;16728;50.832;5.590;2023-07-31T08:40:23;6.30;;;3.30;;
29848;SDS011;16728;50.832;5.590;2023-07-31T08:43:26;5.28;;;3.35;;
29848;SDS011;16728;50.832;5.590;2023-07-31T08:46:28;7.33;;;3.97;;
29848;SDS011;16728;50.832;5.590;2023-07-31T08:49:30;8.48;;;3.58;;
29848;SDS011;16728;50.832;5.590;2023-07-31T08:52:33;6.28;;;3.60;;
29848;SDS011;16728;50.832;5.590;2023-07-31T08:55:36;6.72;;;3.75;;
29848;SDS011;16728;50.832;5.590;2023-07-31T08:58:39;7.25;;;3.38;;
29848;SDS011;16728;50.832;5.590;2023-07-31T09:01:43;9.93;;;3.50;;
29848;SDS011;16728;50.832;5.590;2023-07-31T09:04:50;7.32;;;3.45;;
29848;SDS011;16728;50.832;5.590;2023-07-31T09:07:52;8.35;;;3.75;;
29848;SDS011;16728;50.832;5.590;2023-07-31T09:10:58;6.10;;;3.20;;
29848;SDS011;16728;50.832;5.590;2023-07-31T09:14:04;5.72;;;3.05;;
29848;SDS011;16728;50.832;5.590;2023-07-31T09:17:10;7.20;;;3.30;;
29848;SDS011;16728;50.832;5.590;2023-07-31T09:20:16;8.65;;;3.55;;
29848;SDS011;16728;50.832;5.590;2023-07-31T09:23:22;8.30;;;3.50;;
29848;SDS011;16728;50.832;5.590;2023-07-31T09:26:31;6.43;;;3.38;;
29848;SDS011;16728;50.832;5.590;2023-07-31T09:29:37;5.38;;;3.67;;
29848;SDS011;16728;50.832;5.590;2023-07-31T09:32:39;4.50;;;2.72;;
29848;SDS011;16728;50.832;5.590;2023-07-31T09:35:41;5.00;;;2.90;;
29848;SDS011;16728;50.832;5.590;2023-07-31T09:38:44;3.70;;;2.50;;
29848;SDS011;16728;50.832;5.590;2023-07-31T09:41:47;5.85;;;2.58;;
29848;SDS011;16728;50.832;5.590;2023-07-31T09:44:58;5.45;;;2.50;;
29848;SDS011;16728;50.832;5.590;2023-07-31T09:48:12;5.05;;;2.47;;
29848;SDS011;16728;50.832;5.590;2023-07-31T09:51:17;3.83;;;2.30;;
29848;SDS011;16728;50.832;5.590;2023-07-31T09:54:28;2.88;;;1.58;;
29848;SDS011;16728;50.832;5.590;2023-07-31T09:57:30;4.40;;;2.25;;
29848;SDS011;16728;50.832;5.590;2023-07-31T10:00:33;3.37;;;1.90;;
29848;SDS011;16728;50.832;5.590;2023-07-31T10:03:35;2.88;;;1.77;;
29848;SDS011;16728;50.832;5.590;2023-07-31T10:09:42;3.33;;;1.70;;
29848;SDS011;16728;50.832;5.590;2023-07-31T10:12:44;2.42;;;1.55;;
29848;SDS011;16728;50.832;5.590;2023-07-31T10:15:48;3.63;;;1.65;;
29848;SDS011;16728;50.832;5.590;2023-07-31T10:18:50;2.13;;;1.50;;
29848;SDS011;16728;50.832;5.590;2023-07-31T10:21:54;2.42;;;1.75;;
29848;SDS011;16728;50.832;5.590;2023-07-31T10:24:58;2.35;;;1.70;;
29848;SDS011;16728;50.832;5.590;2023-07-31T10:28:01;2.40;;;1.30;;
29848;SDS011;16728;50.832;5.590;2023-07-31T10:31:03;4.63;;;2.20;;
29848;SDS011;16728;50.832;5.590;2023-07-31T10:34:06;4.55;;;2.08;;
29848;SDS011;16728;50.832;5.590;2023-07-31T10:43:28;4.38;;;2.17;;
29848;SDS011;16728;50.832;5.590;2023-07-31T10:46:32;4.65;;;2.40;;
29848;SDS011;16728;50.832;5.590;2023-07-31T10:49:34;3.67;;;2.38;;
29848;SDS011;16728;50.832;5.590;2023-07-31T10:52:36;2.90;;;2.40;;
29848;SDS011;16728;50.832;5.590;2023-07-31T10:55:41;4.03;;;2.47;;
29848;SDS011;16728;50.832;5.590;2023-07-31T10:58:47;3.08;;;2.22;;
29848;SDS011;16728;50.832;5.590;2023-07-31T11:02:05;4.38;;;2.65;;
29848;SDS011;16728;50.832;5.590;2023-07-31T11:08:51;6.03;;;2.85;;
29848;SDS011;16728;50.832;5.590;2023-07-31T11:11:53;4.10;;;2.97;;
29848;SDS011;16728;50.832;5.590;2023-07-31T11:14:56;5.32;;;3.17;;
29848;SDS011;16728;50.832;5.590;2023-07-31T11:17:59;4.93;;;3.30;;
29848;SDS011;16728;50.832;5.590;2023-07-31T11:21:05;5.75;;;3.42;;
29848;SDS011;16728;50.832;5.590;2023-07-31T11:24:07;5.03;;;3.83;;
29848;SDS011;16728;50.832;5.590;2023-07-31T11:27:09;4.18;;;3.10;;
29848;SDS011;16728;50.832;5.590;2023-07-31T11:30:11;9.57;;;3.45;;
29848;SDS011;16728;50.832;5.590;2023-07-31T11:33:13;5.90;;;3.45;;
29848;SDS011;16728;50.832;5.590;2023-07-31T11:36:16;4.80;;;3.55;;
29848;SDS011;16728;50.832;5.590;2023-07-31T11:39:19;4.85;;;3.40;;
29848;SDS011;16728;50.832;5.590;2023-07-31T11:42:21;5.10;;;3.53;;
29848;SDS011;16728;50.832;5.590;2023-07-31T11:45:26;4.88;;;3.45;;
29848;SDS011;16728;50.832;5.590;2023-07-31T11:48:30;7.00;;;3.67;;
29848;SDS011;16728;50.832;5.590;2023-07-31T11:51:37;8.65;;;4.30;;
29848;SDS011;16728;50.832;5.590;2023-07-31T11:54:40;8.88;;;4.00;;
29848;SDS011;16728;50.832;5.590;2023-07-31T11:57:42;12.27;;;4.33;;
29848;SDS011;16728;50.832;5.590;2023-07-31T12:00:46;6.38;;;3.78;;
29848;SDS011;16728;50.832;5.590;2023-07-31T12:03:50;4.85;;;3.67;;
29848;SDS011;16728;50.832;5.590;2023-07-31T12:09:58;10.18;;;4.70;;
29848;SDS011;16728;50.832;5.590;2023-07-31T12:13:01;5.88;;;3.53;;
29848;SDS011;16728;50.832;5.590;2023-07-31T12:16:06;6.90;;;3.83;;
29848;SDS011;16728;50.832;5.590;2023-07-31T12:19:08;8.30;;;4.32;;
29848;SDS011;16728;50.832;5.590;2023-07-31T12:22:13;6.72;;;3.72;;
29848;SDS011;16728;50.832;5.590;2023-07-31T12:25:16;8.13;;;3.97;;
29848;SDS011;16728;50.832;5.590;2023-07-31T12:28:18;4.70;;;3.67;;
29848;SDS011;16728;50.832;5.590;2023-07-31T12:31:24;6.55;;;4.28;;
29848;SDS011;16728;50.832;5.590;2023-07-31T12:34:30;5.53;;;3.78;;
29848;SDS011;16728;50.832;5.590;2023-07-31T12:37:32;7.75;;;3.47;;
29848;SDS011;16728;50.832;5.590;2023-07-31T12:40:36;5.63;;;3.50;;
29848;SDS011;16728;50.832;5.590;2023-07-31T12:43:42;8.75;;;4.10;;
29848;SDS011;16728;50.832;5.590;2023-07-31T12:49:47;6.18;;;3.08;;
29848;SDS011;16728;50.832;5.590;2023-07-31T12:52:49;6.07;;;3.53;;
29848;SDS011;16728;50.832;5.590;2023-07-31T12:55:51;7.05;;;3.42;;
29848;SDS011;16728;50.832;5.590;2023-07-31T12:58:53;7.00;;;3.58;;
29848;SDS011;16728;50.832;5.590;2023-07-31T13:01:55;6.00;;;3.40;;
29848;SDS011;16728;50.832;5.590;2023-07-31T13:04:56;5.10;;;2.88;;
29848;SDS011;16728;50.832;5.590;2023-07-31T13:07:59;6.05;;;3.10;;
29848;SDS011;16728;50.832;5.590;2023-07-31T13:11:01;5.55;;;3.13;;
29848;SDS011;16728;50.832;5.590;2023-07-31T13:14:03;7.13;;;3.80;;
29848;SDS011;16728;50.832;5.590;2023-07-31T13:17:05;6.95;;;4.18;;
29848;SDS011;16728;50.832;5.590;2023-07-31T13:20:08;5.13;;;3.65;;
29848;SDS011;16728;50.832;5.590;2023-07-31T13:23:10;6.80;;;3.70;;
29848;SDS011;16728;50.832;5.590;2023-07-31T13:26:12;10.95;;;4.07;;
29848;SDS011;16728;50.832;5.590;2023-07-31T13:29:14;6.18;;;4.13;;
29848;SDS011;16728;50.832;5.590;2023-07-31T13:32:16;8.05;;;4.38;;
29848;SDS011;16728;50.832;5.590;2023-07-31T13:35:19;6.43;;;3.78;;
29848;SDS011;16728;50.832;5.590;2023-07-31T13:38:21;7.07;;;3.75;;
29848;SDS011;16728;50.832;5.590;2023-07-31T13:41:23;5.90;;;4.00;;
29848;SDS011;16728;50.832;5.590;2023-07-31T13:44:24;6.93;;;4.47;;
29848;SDS011;16728;50.832;5.590;2023-07-31T13:47:27;7.70;;;3.70;;
29848;SDS011;16728;50.832;5.590;2023-07-31T13:50:29;6.28;;;4.25;;
29848;SDS011;16728;50.832;5.590;2023-07-31T13:53:30;8.60;;;4.60;;
29848;SDS011;16728;50.832;5.590;2023-07-31T13:56:32;6.85;;;3.97;;
29848;SDS011;16728;50.832;5.590;2023-07-31T13:59:34;5.85;;;4.32;;
29848;SDS011;16728;50.832;5.590;2023-07-31T14:02:36;10.65;;;4.97;;
29848;SDS011;16728;50.832;5.590;2023-07-31T14:05:38;9.75;;;4.18;;
29848;SDS011;16728;50.832;5.590;2023-07-31T14:08:40;8.15;;;4.10;;
29848;SDS011;16728;50.832;5.590;2023-07-31T14:11:42;5.47;;;3.70;;
29848;SDS011;16728;50.832;5.590;2023-07-31T14:14:44;6.30;;;3.90;;
29848;SDS011;16728;50.832;5.590;2023-07-31T14:17:46;6.35;;;4.10;;
29848;SDS011;16728;50.832;5.590;2023-07-31T14:20:48;6.47;;;3.60;;
29848;SDS011;16728;50.832;5.590;2023-07-31T14:23:51;6.85;;;4.10;;
29848;SDS011;16728;50.832;5.590;2023-07-31T14:26:54;10.85;;;4.10;;
29848;SDS011;16728;50.832;5.590;2023-07-31T14:29:56;7.40;;;3.72;;
29848;SDS011;16728;50.832;5.590;2023-07-31T14:32:58;7.18;;;3.50;;
29848;SDS011;16728;50.832;5.590;2023-07-31T14:36:02;11.23;;;4.10;;
29848;SDS011;16728;50.832;5.590;2023-07-31T14:39:04;7.95;;;4.00;;
29848;SDS011;16728;50.832;5.590;2023-07-31T14:42:06;6.95;;;3.97;;
29848;SDS011;16728;50.832;5.590;2023-07-31T14:45:08;7.00;;;4.20;;
29848;SDS011;16728;50.832;5.590;2023-07-31T14:51:13;7.78;;;3.72;;
29848;SDS011;16728;50.832;5.590;2023-07-31T14:54:15;6.70;;;4.18;;
29848;SDS011;16728;50.832;5.590;2023-07-31T14:57:17;8.95;;;3.78;;
29848;SDS011;16728;50.832;5.590;2023-07-31T15:00:19;6.78;;;3.92;;
29848;SDS011;16728;50.832;5.590;2023-07-31T15:03:22;7.15;;;3.75;;
29848;SDS011;16728;50.832;5.590;2023-07-31T15:06:26;8.40;;;4.22;;
29848;SDS011;16728;50.832;5.590;2023-07-31T15:09:28;9.43;;;4.15;;
29848;SDS011;16728;50.832;5.590;2023-07-31T15:12:30;7.18;;;4.15;;
29848;SDS011;16728;50.832;5.590;2023-07-31T15:15:32;5.27;;;3.40;;
29848;SDS011;16728;50.832;5.590;2023-07-31T15:18:34;4.57;;;2.90;;
29848;SDS011;16728;50.832;5.590;2023-07-31T15:21:36;4.05;;;2.70;;
29848;SDS011;16728;50.832;5.590;2023-07-31T15:24:39;5.85;;;2.80;;
29848;SDS011;16728;50.832;5.590;2023-07-31T15:27:41;3.90;;;2.30;;
29848;SDS011;16728;50.832;5.590;2023-07-31T15:30:43;3.35;;;2.28;;
29848;SDS011;16728;50.832;5.590;2023-07-31T15:33:46;5.07;;;2.40;;
29848;SDS011;16728;50.832;5.590;2023-07-31T15:36:48;5.72;;;3.08;;
29848;SDS011;16728;50.832;5.590;2023-07-31T15:39:50;6.18;;;3.03;;
29848;SDS011;16728;50.832;5.590;2023-07-31T15:42:51;3.90;;;2.50;;
29848;SDS011;16728;50.832;5.590;2023-07-31T15:45:53;4.57;;;2.47;;
29848;SDS011;16728;50.832;5.590;2023-07-31T15:48:55;5.55;;;2.97;;
29848;SDS011;16728;50.832;5.590;2023-07-31T15:51:57;3.30;;;2.38;;
29848;SDS011;16728;50.832;5.590;2023-07-31T15:55:00;4.60;;;3.03;;
29848;SDS011;16728;50.832;5.590;2023-07-31T15:58:02;5.75;;;3.13;;
29848;SDS011;16728;50.832;5.590;2023-07-31T16:01:04;5.00;;;3.25;;
29848;SDS011;16728;50.832;5.590;2023-07-31T16:04:06;4.05;;;2.90;;
29848;SDS011;16728;50.832;5.590;2023-07-31T16:07:07;4.20;;;2.78;;
29848;SDS011;16728;50.832;5.590;2023-07-31T16:10:09;4.20;;;2.83;;
29848;SDS011;16728;50.832;5.590;2023-07-31T16:13:11;4.55;;;3.05;;
29848;SDS011;16728;50.832;5.590;2023-07-31T16:16:13;4.90;;;3.13;;
29848;SDS011;16728;50.832;5.590;2023-07-31T16:19:15;6.22;;;3.05;;
29848;SDS011;16728;50.832;5.590;2023-07-31T16:22:18;4.50;;;3.05;;
29848;SDS011;16728;50.832;5.590;2023-07-31T16:25:19;7.18;;;3.10;;
29848;SDS011;16728;50.832;5.590;2023-07-31T16:28:22;6.07;;;3.20;;
29848;SDS011;16728;50.832;5.590;2023-07-31T16:31:25;4.25;;;2.78;;
29848;SDS011;16728;50.832;5.590;2023-07-31T16:34:27;9.20;;;3.30;;
29848;SDS011;16728;50.832;5.590;2023-07-31T16:37:29;5.75;;;3.38;;
29848;SDS011;16728;50.832;5.590;2023-07-31T16:40:31;3.90;;;2.63;;
29848;SDS011;16728;50.832;5.590;2023-07-31T16:43:33;3.70;;;2.60;;
29848;SDS011;16728;50.832;5.590;2023-07-31T16:46:35;2.75;;;2.03;;
29848;SDS011;16728;50.832;5.590;2023-07-31T16:49:37;2.35;;;1.95;;
29848;SDS011;16728;50.832;5.590;2023-07-31T16:52:39;2.90;;;1.90;;
29848;SDS011;16728;50.832;5.590;2023-07-31T16:55:41;3.40;;;2.20;;
29848;SDS011;16728;50.832;5.590;2023-07-31T16:58:43;3.30;;;2.28;;
29848;SDS011;16728;50.832;5.590;2023-07-31T17:01:45;3.60;;;2.17;;
29848;SDS011;16728;50.832;5.590;2023-07-31T17:04:48;7.28;;;2.30;;
29848;SDS011;16728;50.832;5.590;2023-07-31T17:07:50;2.95;;;2.10;;
29848;SDS011;16728;50.832;5.590;2023-07-31T17:10:52;3.03;;;1.75;;
29848;SDS011;16728;50.832;5.590;2023-07-31T17:13:54;2.38;;;1.90;;
29848;SDS011;16728;50.832;5.590;2023-07-31T17:16:56;2.63;;;1.58;;
29848;SDS011;16728;50.832;5.590;2023-07-31T17:19:57;2.88;;;1.70;;
29848;SDS011;16728;50.832;5.590;2023-07-31T17:23:00;2.47;;;1.65;;
29848;SDS011;16728;50.832;5.590;2023-07-31T17:26:02;1.52;;;1.42;;
29848;SDS011;16728;50.832;5.590;2023-07-31T17:29:05;1.48;;;1.30;;
29848;SDS011;16728;50.832;5.590;2023-07-31T17:32:07;2.38;;;1.40;;
29848;SDS011;16728;50.832;5.590;2023-07-31T17:35:08;3.17;;;1.40;;
29848;SDS011;16728;50.832;5.590;2023-07-31T17:38:10;1.23;;;1.05;;
29848;SDS011;16728;50.832;5.590;2023-07-31T17:41:12;2.47;;;1.67;;
29848;SDS011;16728;50.832;5.590;2023-07-31T17:44:14;1.98;;;1.30;;
29848;SDS011;16728;50.832;5.590;2023-07-31T17:47:16;1.90;;;1.30;;
29848;SDS011;16728;50.832;5.590;2023-07-31T17:50:19;2.25;;;1.23;;
29848;SDS011;16728;50.832;5.590;2023-07-31T17:53:21;4.80;;;1.60;;
29848;SDS011;16728;50.832;5.590;2023-07-31T17:56:23;5.05;;;1.10;;
29848;SDS011;16728;50.832;5.590;2023-07-31T17:59:25;2.00;;;1.17;;
29848;SDS011;16728;50.832;5.590;2023-07-31T18:02:27;1.13;;;1.00;;
29848;SDS011;16728;50.832;5.590;2023-07-31T18:05:30;2.35;;;1.40;;
29848;SDS011;16728;50.832;5.590;2023-07-31T18:08:32;2.80;;;1.40;;
29848;SDS011;16728;50.832;5.590;2023-07-31T18:11:34;1.67;;;1.30;;
29848;SDS011;16728;50.832;5.590;2023-07-31T18:14:36;3.53;;;1.30;;
29848;SDS011;16728;50.832;5.590;2023-07-31T18:17:40;2.25;;;1.33;;
29848;SDS011;16728;50.832;5.590;2023-07-31T18:20:42;3.13;;;1.20;;
29848;SDS011;16728;50.832;5.590;2023-07-31T18:23:44;2.60;;;1.58;;
29848;SDS011;16728;50.832;5.590;2023-07-31T18:26:46;1.30;;;1.17;;
29848;SDS011;16728;50.832;5.590;2023-07-31T18:29:48;6.00;;;1.40;;
29848;SDS011;16728;50.832;5.590;2023-07-31T18:32:50;2.72;;;1.58;;
29848;SDS011;16728;50.832;5.590;2023-07-31T18:35:52;5.88;;;1.13;;
29848;SDS011;16728;50.832;5.590;2023-07-31T18:38:54;2.03;;;1.33;;
29848;SDS011;16728;50.832;5.590;2023-07-31T18:41:58;1.88;;;1.33;;
29848;SDS011;16728;50.832;5.590;2023-07-31T18:45:01;1.77;;;1.00;;
29848;SDS011;16728;50.832;5.590;2023-07-31T18:48:03;1.23;;;1.13;;
29848;SDS011;16728;50.832;5.590;2023-07-31T18:51:05;1.60;;;1.00;;